sensor_id;sensor_type;location;lat;lon;timestamp;P1;durP1;ratioP1;P2;durP2;ratioP2
60416;SDS011;46263;44.726;10.396;2022-12-07T00:01:27;19.70;;;13.93;;
60416;SDS011;46263;44.726;10.396;2022-12-07T00:03:57;20.55;;;13.95;;
60416;SDS011;46263;44.726;10.396;2022-12-07T00:06:34;18.83;;;12.48;;
60416;SDS011;46263;44.726;10.396;2022-12-07T00:09:02;19.50;;;13.75;;
60416;SDS011;46263;44.726;10.396;2022-12-07T00:11:28;18.42;;;13.52;;
60416;SDS011;46263;44.726;10.396;2022-12-07T00:13:54;18.13;;;12.85;;
60416;SDS011;46263;44.726;10.396;2022-12-07T00:16:23;15.90;;;12.63;;
60416;SDS011;46263;44.726;10.396;2022-12-07T00:18:50;17.02;;;11.90;;
60416;SDS011;46263;44.726;10.396;2022-12-07T00:21:16;18.35;;;12.05;;
60416;SDS011;46263;44.726;10.396;2022-12-07T00:23:50;15.60;;;11.10;;
60416;SDS011;46263;44.726;10.396;2022-12-07T00:26:18;15.45;;;10.93;;
60416;SDS011;46263;44.726;10.396;2022-12-07T00:28:50;15.93;;;10.95;;
60416;SDS011;46263;44.726;10.396;2022-12-07T00:31:18;14.88;;;11.00;;
60416;SDS011;46263;44.726;10.396;2022-12-07T00:33:45;15.18;;;10.30;;
60416;SDS011;46263;44.726;10.396;2022-12-07T00:36:12;17.10;;;10.88;;
60416;SDS011;46263;44.726;10.396;2022-12-07T00:38:40;16.33;;;10.85;;
60416;SDS011;46263;44.726;10.396;2022-12-07T00:41:08;13.50;;;9.93;;
60416;SDS011;46263;44.726;10.396;2022-12-07T00:43:36;16.23;;;9.98;;
60416;SDS011;46263;44.726;10.396;2022-12-07T00:46:02;14.82;;;11.05;;
60416;SDS011;46263;44.726;10.396;2022-12-07T00:48:27;15.77;;;10.02;;
60416;SDS011;46263;44.726;10.396;2022-12-07T00:50:53;13.50;;;10.80;;
60416;SDS011;46263;44.726;10.396;2022-12-07T00:53:18;16.52;;;10.15;;
60416;SDS011;46263;44.726;10.396;2022-12-07T00:55:45;14.00;;;10.02;;
60416;SDS011;46263;44.726;10.396;2022-12-07T00:58:10;15.85;;;9.75;;
60416;SDS011;46263;44.726;10.396;2022-12-07T01:00:37;13.00;;;9.45;;
60416;SDS011;46263;44.726;10.396;2022-12-07T01:03:04;13.27;;;8.25;;
60416;SDS011;46263;44.726;10.396;2022-12-07T01:05:30;12.88;;;8.65;;
60416;SDS011;46263;44.726;10.396;2022-12-07T01:07:55;12.80;;;9.13;;
60416;SDS011;46263;44.726;10.396;2022-12-07T01:10:21;13.48;;;8.65;;
60416;SDS011;46263;44.726;10.396;2022-12-07T01:12:46;10.23;;;7.50;;
60416;SDS011;46263;44.726;10.396;2022-12-07T01:15:12;11.38;;;8.40;;
60416;SDS011;46263;44.726;10.396;2022-12-07T01:17:37;13.20;;;9.57;;
60416;SDS011;46263;44.726;10.396;2022-12-07T01:20:03;12.38;;;8.52;;
60416;SDS011;46263;44.726;10.396;2022-12-07T01:22:29;13.25;;;9.18;;
60416;SDS011;46263;44.726;10.396;2022-12-07T01:24:55;16.00;;;9.75;;
60416;SDS011;46263;44.726;10.396;2022-12-07T01:27:21;14.30;;;9.27;;
60416;SDS011;46263;44.726;10.396;2022-12-07T01:29:46;11.93;;;8.77;;
60416;SDS011;46263;44.726;10.396;2022-12-07T01:32:12;13.80;;;8.88;;
60416;SDS011;46263;44.726;10.396;2022-12-07T01:34:37;11.23;;;8.38;;
60416;SDS011;46263;44.726;10.396;2022-12-07T01:37:03;12.57;;;9.50;;
60416;SDS011;46263;44.726;10.396;2022-12-07T01:39:29;10.80;;;8.52;;
60416;SDS011;46263;44.726;10.396;2022-12-07T01:41:54;12.10;;;7.63;;
60416;SDS011;46263;44.726;10.396;2022-12-07T01:44:21;11.00;;;7.72;;
60416;SDS011;46263;44.726;10.396;2022-12-07T01:46:53;11.85;;;8.02;;
60416;SDS011;46263;44.726;10.396;2022-12-07T01:49:23;10.85;;;7.75;;
60416;SDS011;46263;44.726;10.396;2022-12-07T01:51:48;10.77;;;7.47;;
60416;SDS011;46263;44.726;10.396;2022-12-07T01:54:17;12.32;;;8.35;;
60416;SDS011;46263;44.726;10.396;2022-12-07T01:56:47;12.05;;;8.23;;
60416;SDS011;46263;44.726;10.396;2022-12-07T01:59:17;11.55;;;7.85;;
60416;SDS011;46263;44.726;10.396;2022-12-07T02:01:44;11.27;;;7.82;;
60416;SDS011;46263;44.726;10.396;2022-12-07T02:04:10;11.27;;;8.02;;
60416;SDS011;46263;44.726;10.396;2022-12-07T02:06:37;10.77;;;7.55;;
60416;SDS011;46263;44.726;10.396;2022-12-07T02:09:03;11.82;;;7.55;;
60416;SDS011;46263;44.726;10.396;2022-12-07T02:11:29;8.85;;;6.43;;
60416;SDS011;46263;44.726;10.396;2022-12-07T02:13:55;9.45;;;6.40;;
60416;SDS011;46263;44.726;10.396;2022-12-07T02:27:39;8.27;;;5.97;;
60416;SDS011;46263;44.726;10.396;2022-12-07T02:30:12;8.27;;;6.55;;
60416;SDS011;46263;44.726;10.396;2022-12-07T02:32:42;8.60;;;6.30;;
60416;SDS011;46263;44.726;10.396;2022-12-07T02:35:13;8.98;;;6.72;;
60416;SDS011;46263;44.726;10.396;2022-12-07T02:40:53;11.65;;;6.35;;
60416;SDS011;46263;44.726;10.396;2022-12-07T02:43:25;9.18;;;6.68;;
60416;SDS011;46263;44.726;10.396;2022-12-07T02:45:54;9.23;;;7.28;;
60416;SDS011;46263;44.726;10.396;2022-12-07T02:48:23;9.15;;;6.68;;
60416;SDS011;46263;44.726;10.396;2022-12-07T02:50:52;9.00;;;6.40;;
60416;SDS011;46263;44.726;10.396;2022-12-07T02:58:48;9.93;;;6.15;;
60416;SDS011;46263;44.726;10.396;2022-12-07T03:04:16;8.82;;;5.93;;
60416;SDS011;46263;44.726;10.396;2022-12-07T03:15:21;10.45;;;7.53;;
60416;SDS011;46263;44.726;10.396;2022-12-07T03:17:52;10.93;;;7.43;;
60416;SDS011;46263;44.726;10.396;2022-12-07T03:20:22;10.65;;;7.55;;
60416;SDS011;46263;44.726;10.396;2022-12-07T03:22:50;10.48;;;8.02;;
60416;SDS011;46263;44.726;10.396;2022-12-07T03:25:17;11.10;;;7.38;;
60416;SDS011;46263;44.726;10.396;2022-12-07T03:32:40;10.88;;;8.05;;
60416;SDS011;46263;44.726;10.396;2022-12-07T03:35:17;11.38;;;8.63;;
60416;SDS011;46263;44.726;10.396;2022-12-07T03:37:54;12.57;;;8.55;;
60416;SDS011;46263;44.726;10.396;2022-12-07T03:40:28;13.70;;;8.50;;
60416;SDS011;46263;44.726;10.396;2022-12-07T03:42:59;14.15;;;9.48;;
60416;SDS011;46263;44.726;10.396;2022-12-07T03:45:32;14.18;;;8.95;;
60416;SDS011;46263;44.726;10.396;2022-12-07T03:50:53;13.07;;;9.85;;
60416;SDS011;46263;44.726;10.396;2022-12-07T03:53:29;13.65;;;10.13;;
60416;SDS011;46263;44.726;10.396;2022-12-07T03:56:01;13.55;;;9.63;;
60416;SDS011;46263;44.726;10.396;2022-12-07T03:58:27;13.82;;;9.75;;
60416;SDS011;46263;44.726;10.396;2022-12-07T04:00:54;14.85;;;9.80;;
60416;SDS011;46263;44.726;10.396;2022-12-07T04:03:20;15.07;;;9.32;;
60416;SDS011;46263;44.726;10.396;2022-12-07T04:05:46;13.43;;;9.25;;
60416;SDS011;46263;44.726;10.396;2022-12-07T04:08:12;14.45;;;8.82;;
60416;SDS011;46263;44.726;10.396;2022-12-07T04:10:37;11.55;;;8.43;;
60416;SDS011;46263;44.726;10.396;2022-12-07T04:13:03;12.82;;;9.68;;
60416;SDS011;46263;44.726;10.396;2022-12-07T04:15:28;11.30;;;8.82;;
60416;SDS011;46263;44.726;10.396;2022-12-07T04:17:54;12.60;;;8.93;;
60416;SDS011;46263;44.726;10.396;2022-12-07T04:20:20;10.98;;;7.85;;
60416;SDS011;46263;44.726;10.396;2022-12-07T04:22:45;13.32;;;9.02;;
60416;SDS011;46263;44.726;10.396;2022-12-07T04:25:11;20.70;;;11.60;;
60416;SDS011;46263;44.726;10.396;2022-12-07T04:27:36;15.65;;;9.20;;
60416;SDS011;46263;44.726;10.396;2022-12-07T04:30:02;13.85;;;8.35;;
60416;SDS011;46263;44.726;10.396;2022-12-07T04:32:28;13.50;;;7.55;;
60416;SDS011;46263;44.726;10.396;2022-12-07T04:34:53;12.23;;;8.13;;
60416;SDS011;46263;44.726;10.396;2022-12-07T04:37:19;13.07;;;8.93;;
60416;SDS011;46263;44.726;10.396;2022-12-07T04:39:44;10.55;;;7.93;;
60416;SDS011;46263;44.726;10.396;2022-12-07T04:42:10;9.75;;;6.95;;
60416;SDS011;46263;44.726;10.396;2022-12-07T04:44:36;10.55;;;7.57;;
60416;SDS011;46263;44.726;10.396;2022-12-07T04:47:01;8.43;;;6.53;;
60416;SDS011;46263;44.726;10.396;2022-12-07T04:49:26;11.32;;;7.97;;
60416;SDS011;46263;44.726;10.396;2022-12-07T04:51:52;9.48;;;7.63;;
60416;SDS011;46263;44.726;10.396;2022-12-07T04:54:18;11.13;;;7.05;;
60416;SDS011;46263;44.726;10.396;2022-12-07T04:56:44;9.57;;;7.05;;
60416;SDS011;46263;44.726;10.396;2022-12-07T04:59:10;9.80;;;7.38;;
60416;SDS011;46263;44.726;10.396;2022-12-07T05:01:36;10.23;;;7.47;;
60416;SDS011;46263;44.726;10.396;2022-12-07T05:04:02;11.25;;;7.78;;
60416;SDS011;46263;44.726;10.396;2022-12-07T05:06:27;11.80;;;8.38;;
60416;SDS011;46263;44.726;10.396;2022-12-07T05:08:53;12.85;;;8.75;;
60416;SDS011;46263;44.726;10.396;2022-12-07T05:11:18;14.95;;;9.02;;
60416;SDS011;46263;44.726;10.396;2022-12-07T05:14:03;14.27;;;9.50;;
60416;SDS011;46263;44.726;10.396;2022-12-07T05:16:30;16.08;;;11.55;;
60416;SDS011;46263;44.726;10.396;2022-12-07T05:18:55;18.13;;;11.38;;
60416;SDS011;46263;44.726;10.396;2022-12-07T05:21:21;16.95;;;10.73;;
60416;SDS011;46263;44.726;10.396;2022-12-07T05:23:47;18.13;;;11.65;;
60416;SDS011;46263;44.726;10.396;2022-12-07T05:26:12;16.48;;;12.25;;
60416;SDS011;46263;44.726;10.396;2022-12-07T05:28:38;19.38;;;13.10;;
60416;SDS011;46263;44.726;10.396;2022-12-07T05:31:03;20.77;;;13.85;;
60416;SDS011;46263;44.726;10.396;2022-12-07T05:33:29;17.63;;;12.10;;
60416;SDS011;46263;44.726;10.396;2022-12-07T05:35:54;16.52;;;11.40;;
60416;SDS011;46263;44.726;10.396;2022-12-07T05:38:20;18.20;;;11.25;;
60416;SDS011;46263;44.726;10.396;2022-12-07T05:40:45;17.45;;;11.85;;
60416;SDS011;46263;44.726;10.396;2022-12-07T05:43:10;16.73;;;11.20;;
60416;SDS011;46263;44.726;10.396;2022-12-07T05:45:36;14.88;;;11.50;;
60416;SDS011;46263;44.726;10.396;2022-12-07T05:48:01;15.45;;;9.95;;
60416;SDS011;46263;44.726;10.396;2022-12-07T05:50:27;17.65;;;11.38;;
60416;SDS011;46263;44.726;10.396;2022-12-07T05:52:53;17.35;;;12.13;;
60416;SDS011;46263;44.726;10.396;2022-12-07T05:55:19;21.40;;;13.32;;
60416;SDS011;46263;44.726;10.396;2022-12-07T05:57:44;36.35;;;19.55;;
60416;SDS011;46263;44.726;10.396;2022-12-07T06:00:29;28.23;;;16.77;;
60416;SDS011;46263;44.726;10.396;2022-12-07T06:02:55;29.38;;;16.92;;
60416;SDS011;46263;44.726;10.396;2022-12-07T06:05:20;31.25;;;19.52;;
60416;SDS011;46263;44.726;10.396;2022-12-07T06:07:46;35.90;;;22.50;;
60416;SDS011;46263;44.726;10.396;2022-12-07T06:10:11;39.70;;;22.05;;
60416;SDS011;46263;44.726;10.396;2022-12-07T06:12:37;40.90;;;22.65;;
60416;SDS011;46263;44.726;10.396;2022-12-07T06:15:04;40.22;;;24.00;;
60416;SDS011;46263;44.726;10.396;2022-12-07T06:17:31;37.08;;;22.02;;
60416;SDS011;46263;44.726;10.396;2022-12-07T06:19:56;37.72;;;22.17;;
60416;SDS011;46263;44.726;10.396;2022-12-07T06:22:22;34.75;;;20.58;;
60416;SDS011;46263;44.726;10.396;2022-12-07T06:24:47;33.83;;;20.80;;
60416;SDS011;46263;44.726;10.396;2022-12-07T06:27:13;34.80;;;20.80;;
60416;SDS011;46263;44.726;10.396;2022-12-07T06:29:38;32.85;;;19.20;;
60416;SDS011;46263;44.726;10.396;2022-12-07T06:32:04;34.95;;;19.92;;
60416;SDS011;46263;44.726;10.396;2022-12-07T06:34:30;30.52;;;19.77;;
60416;SDS011;46263;44.726;10.396;2022-12-07T06:36:55;34.22;;;21.50;;
60416;SDS011;46263;44.726;10.396;2022-12-07T06:39:22;38.47;;;21.83;;
60416;SDS011;46263;44.726;10.396;2022-12-07T06:41:49;34.97;;;21.38;;
60416;SDS011;46263;44.726;10.396;2022-12-07T06:44:16;36.80;;;21.80;;
60416;SDS011;46263;44.726;10.396;2022-12-07T06:46:42;35.00;;;20.00;;
60416;SDS011;46263;44.726;10.396;2022-12-07T06:49:08;36.90;;;22.00;;
60416;SDS011;46263;44.726;10.396;2022-12-07T06:51:34;39.53;;;21.33;;
60416;SDS011;46263;44.726;10.396;2022-12-07T06:54:06;35.53;;;21.80;;
60416;SDS011;46263;44.726;10.396;2022-12-07T06:56:32;37.38;;;21.63;;
60416;SDS011;46263;44.726;10.396;2022-12-07T06:58:58;35.33;;;20.63;;
60416;SDS011;46263;44.726;10.396;2022-12-07T07:01:23;34.67;;;20.88;;
60416;SDS011;46263;44.726;10.396;2022-12-07T07:03:48;34.33;;;19.35;;
60416;SDS011;46263;44.726;10.396;2022-12-07T07:06:14;37.28;;;21.30;;
60416;SDS011;46263;44.726;10.396;2022-12-07T07:08:40;44.35;;;21.08;;
60416;SDS011;46263;44.726;10.396;2022-12-07T07:11:06;36.63;;;21.65;;
60416;SDS011;46263;44.726;10.396;2022-12-07T07:13:33;44.55;;;22.08;;
60416;SDS011;46263;44.726;10.396;2022-12-07T07:15:59;41.92;;;23.05;;
60416;SDS011;46263;44.726;10.396;2022-12-07T07:18:24;36.25;;;22.50;;
60416;SDS011;46263;44.726;10.396;2022-12-07T07:20:51;41.50;;;22.40;;
60416;SDS011;46263;44.726;10.396;2022-12-07T07:23:17;37.33;;;23.42;;
60416;SDS011;46263;44.726;10.396;2022-12-07T07:25:42;53.42;;;23.48;;
60416;SDS011;46263;44.726;10.396;2022-12-07T07:28:09;45.10;;;23.05;;
60416;SDS011;46263;44.726;10.396;2022-12-07T07:30:34;45.03;;;23.50;;
60416;SDS011;46263;44.726;10.396;2022-12-07T07:33:00;42.58;;;24.17;;
60416;SDS011;46263;44.726;10.396;2022-12-07T07:35:28;39.53;;;22.58;;
60416;SDS011;46263;44.726;10.396;2022-12-07T07:37:54;30.35;;;20.98;;
60416;SDS011;46263;44.726;10.396;2022-12-07T07:40:20;33.22;;;21.98;;
60416;SDS011;46263;44.726;10.396;2022-12-07T07:42:49;32.65;;;20.83;;
60416;SDS011;46263;44.726;10.396;2022-12-07T07:45:15;29.85;;;21.00;;
60416;SDS011;46263;44.726;10.396;2022-12-07T07:47:40;30.77;;;20.67;;
60416;SDS011;46263;44.726;10.396;2022-12-07T07:50:06;30.67;;;20.85;;
60416;SDS011;46263;44.726;10.396;2022-12-07T07:52:32;28.98;;;20.25;;
60416;SDS011;46263;44.726;10.396;2022-12-07T07:54:57;31.48;;;20.40;;
60416;SDS011;46263;44.726;10.396;2022-12-07T07:57:23;30.10;;;20.92;;
60416;SDS011;46263;44.726;10.396;2022-12-07T07:59:48;38.70;;;23.85;;
60416;SDS011;46263;44.726;10.396;2022-12-07T08:02:17;34.97;;;22.83;;
60416;SDS011;46263;44.726;10.396;2022-12-07T08:04:44;31.70;;;22.10;;
60416;SDS011;46263;44.726;10.396;2022-12-07T08:07:11;31.65;;;20.05;;
60416;SDS011;46263;44.726;10.396;2022-12-07T08:09:37;35.33;;;22.38;;
60416;SDS011;46263;44.726;10.396;2022-12-07T08:12:03;36.20;;;22.60;;
60416;SDS011;46263;44.726;10.396;2022-12-07T08:14:29;35.25;;;22.35;;
60416;SDS011;46263;44.726;10.396;2022-12-07T08:16:55;32.80;;;21.42;;
60416;SDS011;46263;44.726;10.396;2022-12-07T08:19:20;34.10;;;20.98;;
60416;SDS011;46263;44.726;10.396;2022-12-07T08:21:46;35.55;;;21.10;;
60416;SDS011;46263;44.726;10.396;2022-12-07T08:24:11;35.28;;;20.52;;
60416;SDS011;46263;44.726;10.396;2022-12-07T08:26:37;37.78;;;21.73;;
60416;SDS011;46263;44.726;10.396;2022-12-07T08:29:03;34.58;;;22.17;;
60416;SDS011;46263;44.726;10.396;2022-12-07T08:31:28;34.50;;;19.48;;
60416;SDS011;46263;44.726;10.396;2022-12-07T08:33:54;36.53;;;21.38;;
60416;SDS011;46263;44.726;10.396;2022-12-07T08:36:20;35.15;;;21.92;;
60416;SDS011;46263;44.726;10.396;2022-12-07T08:38:47;28.02;;;18.98;;
60416;SDS011;46263;44.726;10.396;2022-12-07T08:41:13;34.17;;;19.42;;
60416;SDS011;46263;44.726;10.396;2022-12-07T08:43:39;26.60;;;18.13;;
60416;SDS011;46263;44.726;10.396;2022-12-07T08:48:37;30.73;;;19.13;;
60416;SDS011;46263;44.726;10.396;2022-12-07T08:51:10;32.45;;;20.83;;
60416;SDS011;46263;44.726;10.396;2022-12-07T08:53:37;33.08;;;20.17;;
60416;SDS011;46263;44.726;10.396;2022-12-07T08:56:04;31.58;;;19.40;;
60416;SDS011;46263;44.726;10.396;2022-12-07T08:58:31;28.80;;;17.60;;
60416;SDS011;46263;44.726;10.396;2022-12-07T09:00:58;28.25;;;18.15;;
60416;SDS011;46263;44.726;10.396;2022-12-07T09:03:24;23.75;;;16.23;;
60416;SDS011;46263;44.726;10.396;2022-12-07T09:05:49;25.23;;;17.45;;
60416;SDS011;46263;44.726;10.396;2022-12-07T09:08:15;27.33;;;16.98;;
60416;SDS011;46263;44.726;10.396;2022-12-07T09:10:40;24.67;;;15.95;;
60416;SDS011;46263;44.726;10.396;2022-12-07T09:13:06;23.80;;;16.23;;
60416;SDS011;46263;44.726;10.396;2022-12-07T09:15:31;21.25;;;14.85;;
60416;SDS011;46263;44.726;10.396;2022-12-07T09:17:57;22.92;;;17.02;;
60416;SDS011;46263;44.726;10.396;2022-12-07T09:20:22;26.38;;;15.98;;
60416;SDS011;46263;44.726;10.396;2022-12-07T09:22:48;25.60;;;17.75;;
60416;SDS011;46263;44.726;10.396;2022-12-07T09:25:13;24.45;;;15.50;;
60416;SDS011;46263;44.726;10.396;2022-12-07T09:27:39;26.33;;;17.80;;
60416;SDS011;46263;44.726;10.396;2022-12-07T09:30:06;28.75;;;18.65;;
60416;SDS011;46263;44.726;10.396;2022-12-07T09:32:32;26.73;;;18.17;;
60416;SDS011;46263;44.726;10.396;2022-12-07T09:34:57;29.38;;;18.35;;
60416;SDS011;46263;44.726;10.396;2022-12-07T09:37:23;27.98;;;18.08;;
60416;SDS011;46263;44.726;10.396;2022-12-07T09:39:48;32.83;;;18.63;;
60416;SDS011;46263;44.726;10.396;2022-12-07T09:42:25;28.92;;;17.73;;
60416;SDS011;46263;44.726;10.396;2022-12-07T09:44:54;29.42;;;17.77;;
60416;SDS011;46263;44.726;10.396;2022-12-07T09:47:19;31.42;;;18.65;;
60416;SDS011;46263;44.726;10.396;2022-12-07T09:49:45;30.70;;;19.90;;
60416;SDS011;46263;44.726;10.396;2022-12-07T09:57:12;29.55;;;19.40;;
60416;SDS011;46263;44.726;10.396;2022-12-07T09:59:38;30.45;;;20.00;;
60416;SDS011;46263;44.726;10.396;2022-12-07T10:05:04;31.65;;;19.85;;
60416;SDS011;46263;44.726;10.396;2022-12-07T10:07:32;29.75;;;19.17;;
60416;SDS011;46263;44.726;10.396;2022-12-07T10:09:57;27.25;;;18.70;;
60416;SDS011;46263;44.726;10.396;2022-12-07T10:12:23;30.35;;;19.75;;
60416;SDS011;46263;44.726;10.396;2022-12-07T10:15:02;28.92;;;19.80;;
60416;SDS011;46263;44.726;10.396;2022-12-07T10:17:37;32.15;;;19.73;;
60416;SDS011;46263;44.726;10.396;2022-12-07T10:20:13;31.30;;;20.00;;
60416;SDS011;46263;44.726;10.396;2022-12-07T10:23:03;31.55;;;20.50;;
60416;SDS011;46263;44.726;10.396;2022-12-07T10:25:32;32.95;;;21.20;;
60416;SDS011;46263;44.726;10.396;2022-12-07T10:28:00;29.95;;;19.92;;
60416;SDS011;46263;44.726;10.396;2022-12-07T10:30:31;30.08;;;19.65;;
60416;SDS011;46263;44.726;10.396;2022-12-07T10:32:57;29.77;;;20.20;;
60416;SDS011;46263;44.726;10.396;2022-12-07T10:37:50;31.35;;;21.45;;
60416;SDS011;46263;44.726;10.396;2022-12-07T10:40:25;32.58;;;19.60;;
60416;SDS011;46263;44.726;10.396;2022-12-07T10:45:43;34.33;;;21.23;;
60416;SDS011;46263;44.726;10.396;2022-12-07T10:48:41;30.75;;;21.08;;
60416;SDS011;46263;44.726;10.396;2022-12-07T10:51:22;33.17;;;19.25;;
60416;SDS011;46263;44.726;10.396;2022-12-07T10:54:12;33.08;;;19.92;;
60416;SDS011;46263;44.726;10.396;2022-12-07T10:56:58;31.52;;;19.75;;
60416;SDS011;46263;44.726;10.396;2022-12-07T10:59:53;31.98;;;22.50;;
60416;SDS011;46263;44.726;10.396;2022-12-07T11:08:05;28.38;;;18.65;;
60416;SDS011;46263;44.726;10.396;2022-12-07T11:13:37;26.30;;;18.95;;
60416;SDS011;46263;44.726;10.396;2022-12-07T11:16:26;24.92;;;17.85;;
60416;SDS011;46263;44.726;10.396;2022-12-07T11:21:45;29.15;;;18.10;;
60416;SDS011;46263;44.726;10.396;2022-12-07T11:24:20;25.55;;;19.23;;
60416;SDS011;46263;44.726;10.396;2022-12-07T11:35:15;25.33;;;17.52;;
60416;SDS011;46263;44.726;10.396;2022-12-07T11:37:51;29.02;;;18.92;;
60416;SDS011;46263;44.726;10.396;2022-12-07T11:40:31;26.42;;;17.88;;
60416;SDS011;46263;44.726;10.396;2022-12-07T11:43:02;26.33;;;17.33;;
60416;SDS011;46263;44.726;10.396;2022-12-07T11:45:41;27.13;;;17.95;;
60416;SDS011;46263;44.726;10.396;2022-12-07T11:48:22;26.30;;;17.40;;
60416;SDS011;46263;44.726;10.396;2022-12-07T11:50:52;29.23;;;20.05;;
60416;SDS011;46263;44.726;10.396;2022-12-07T12:01:26;23.83;;;16.80;;
60416;SDS011;46263;44.726;10.396;2022-12-07T12:04:22;23.00;;;15.43;;
60416;SDS011;46263;44.726;10.396;2022-12-07T12:06:55;22.85;;;14.60;;
60416;SDS011;46263;44.726;10.396;2022-12-07T12:20:30;30.92;;;18.30;;
60416;SDS011;46263;44.726;10.396;2022-12-07T12:23:09;27.50;;;17.70;;
60416;SDS011;46263;44.726;10.396;2022-12-07T12:28:52;30.45;;;19.80;;
60416;SDS011;46263;44.726;10.396;2022-12-07T12:33:58;28.77;;;17.60;;
60416;SDS011;46263;44.726;10.396;2022-12-07T12:46:55;33.58;;;21.10;;
60416;SDS011;46263;44.726;10.396;2022-12-07T12:51:54;32.08;;;19.95;;
60416;SDS011;46263;44.726;10.396;2022-12-07T13:02:24;34.72;;;22.45;;
60416;SDS011;46263;44.726;10.396;2022-12-07T13:13:25;35.33;;;22.45;;
60416;SDS011;46263;44.726;10.396;2022-12-07T13:34:01;34.90;;;21.88;;
60416;SDS011;46263;44.726;10.396;2022-12-07T13:36:30;34.67;;;22.55;;
60416;SDS011;46263;44.726;10.396;2022-12-07T13:39:15;33.92;;;21.52;;
60416;SDS011;46263;44.726;10.396;2022-12-07T13:41:42;36.50;;;22.70;;
60416;SDS011;46263;44.726;10.396;2022-12-07T13:44:14;32.47;;;20.25;;
60416;SDS011;46263;44.726;10.396;2022-12-07T13:49:31;34.05;;;21.52;;
60416;SDS011;46263;44.726;10.396;2022-12-07T13:57:24;37.88;;;22.90;;
60416;SDS011;46263;44.726;10.396;2022-12-07T13:59:51;36.20;;;22.00;;
60416;SDS011;46263;44.726;10.396;2022-12-07T14:02:28;39.20;;;22.52;;
60416;SDS011;46263;44.726;10.396;2022-12-07T14:05:22;35.75;;;19.88;;
60416;SDS011;46263;44.726;10.396;2022-12-07T14:10:38;39.53;;;22.17;;
60416;SDS011;46263;44.726;10.396;2022-12-07T14:15:56;39.03;;;24.20;;
60416;SDS011;46263;44.726;10.396;2022-12-07T14:18:35;37.78;;;21.92;;
60416;SDS011;46263;44.726;10.396;2022-12-07T14:21:04;36.80;;;21.75;;
60416;SDS011;46263;44.726;10.396;2022-12-07T14:23:35;39.40;;;23.48;;
60416;SDS011;46263;44.726;10.396;2022-12-07T14:26:15;40.42;;;22.55;;
60416;SDS011;46263;44.726;10.396;2022-12-07T14:28:44;36.65;;;23.38;;
60416;SDS011;46263;44.726;10.396;2022-12-07T14:31:11;36.25;;;21.30;;
60416;SDS011;46263;44.726;10.396;2022-12-07T14:33:38;37.40;;;23.60;;
60416;SDS011;46263;44.726;10.396;2022-12-07T14:36:04;37.88;;;22.27;;
60416;SDS011;46263;44.726;10.396;2022-12-07T14:38:30;39.15;;;22.88;;
60416;SDS011;46263;44.726;10.396;2022-12-07T14:40:55;42.17;;;24.48;;
60416;SDS011;46263;44.726;10.396;2022-12-07T14:43:44;36.60;;;23.15;;
60416;SDS011;46263;44.726;10.396;2022-12-07T14:46:10;40.30;;;24.98;;
60416;SDS011;46263;44.726;10.396;2022-12-07T14:48:35;40.28;;;23.45;;
60416;SDS011;46263;44.726;10.396;2022-12-07T14:51:01;41.08;;;23.20;;
60416;SDS011;46263;44.726;10.396;2022-12-07T14:53:29;41.10;;;22.73;;
60416;SDS011;46263;44.726;10.396;2022-12-07T14:55:59;38.38;;;23.52;;
60416;SDS011;46263;44.726;10.396;2022-12-07T14:58:25;37.97;;;24.10;;
60416;SDS011;46263;44.726;10.396;2022-12-07T15:00:50;39.40;;;22.23;;
60416;SDS011;46263;44.726;10.396;2022-12-07T15:03:16;43.42;;;24.73;;
60416;SDS011;46263;44.726;10.396;2022-12-07T15:05:41;45.30;;;24.83;;
60416;SDS011;46263;44.726;10.396;2022-12-07T15:08:11;42.83;;;23.95;;
60416;SDS011;46263;44.726;10.396;2022-12-07T15:10:37;43.13;;;24.10;;
60416;SDS011;46263;44.726;10.396;2022-12-07T15:13:04;43.22;;;25.00;;
60416;SDS011;46263;44.726;10.396;2022-12-07T15:15:49;47.95;;;25.65;;
60416;SDS011;46263;44.726;10.396;2022-12-07T15:18:17;43.05;;;25.63;;
60416;SDS011;46263;44.726;10.396;2022-12-07T15:20:44;46.65;;;24.88;;
60416;SDS011;46263;44.726;10.396;2022-12-07T15:23:10;48.60;;;25.85;;
60416;SDS011;46263;44.726;10.396;2022-12-07T15:25:39;44.65;;;26.67;;
60416;SDS011;46263;44.726;10.396;2022-12-07T15:28:05;44.90;;;26.67;;
60416;SDS011;46263;44.726;10.396;2022-12-07T15:30:31;41.78;;;25.52;;
60416;SDS011;46263;44.726;10.396;2022-12-07T15:32:56;44.58;;;27.23;;
60416;SDS011;46263;44.726;10.396;2022-12-07T15:35:22;42.55;;;26.98;;
60416;SDS011;46263;44.726;10.396;2022-12-07T15:37:47;46.58;;;27.05;;
60416;SDS011;46263;44.726;10.396;2022-12-07T15:40:13;47.88;;;27.58;;
60416;SDS011;46263;44.726;10.396;2022-12-07T15:42:39;44.75;;;26.70;;
60416;SDS011;46263;44.726;10.396;2022-12-07T15:45:06;41.35;;;25.80;;
60416;SDS011;46263;44.726;10.396;2022-12-07T15:47:37;40.15;;;24.58;;
60416;SDS011;46263;44.726;10.396;2022-12-07T15:50:05;46.00;;;24.52;;
60416;SDS011;46263;44.726;10.396;2022-12-07T15:52:32;39.60;;;23.95;;
60416;SDS011;46263;44.726;10.396;2022-12-07T15:54:58;41.75;;;23.80;;
60416;SDS011;46263;44.726;10.396;2022-12-07T15:57:30;38.45;;;23.83;;
60416;SDS011;46263;44.726;10.396;2022-12-07T15:59:57;39.85;;;22.85;;
60416;SDS011;46263;44.726;10.396;2022-12-07T16:02:23;47.80;;;26.45;;
60416;SDS011;46263;44.726;10.396;2022-12-07T16:04:49;42.30;;;24.30;;
60416;SDS011;46263;44.726;10.396;2022-12-07T16:07:15;55.05;;;24.73;;
60416;SDS011;46263;44.726;10.396;2022-12-07T16:09:45;43.03;;;24.42;;
60416;SDS011;46263;44.726;10.396;2022-12-07T16:12:12;47.92;;;25.20;;
60416;SDS011;46263;44.726;10.396;2022-12-07T16:14:39;48.20;;;26.77;;
60416;SDS011;46263;44.726;10.396;2022-12-07T16:17:05;50.25;;;26.73;;
60416;SDS011;46263;44.726;10.396;2022-12-07T16:19:32;47.00;;;26.20;;
60416;SDS011;46263;44.726;10.396;2022-12-07T16:21:58;46.10;;;26.02;;
60416;SDS011;46263;44.726;10.396;2022-12-07T16:24:24;44.88;;;25.63;;
60416;SDS011;46263;44.726;10.396;2022-12-07T16:26:50;44.30;;;26.38;;
60416;SDS011;46263;44.726;10.396;2022-12-07T16:29:16;44.63;;;25.13;;
60416;SDS011;46263;44.726;10.396;2022-12-07T16:31:44;48.85;;;24.17;;
60416;SDS011;46263;44.726;10.396;2022-12-07T16:34:09;47.05;;;24.55;;
60416;SDS011;46263;44.726;10.396;2022-12-07T16:36:35;51.63;;;28.17;;
60416;SDS011;46263;44.726;10.396;2022-12-07T16:39:00;49.08;;;26.10;;
60416;SDS011;46263;44.726;10.396;2022-12-07T16:41:27;50.83;;;25.92;;
60416;SDS011;46263;44.726;10.396;2022-12-07T16:43:52;43.63;;;24.65;;
60416;SDS011;46263;44.726;10.396;2022-12-07T16:46:18;41.50;;;23.60;;
60416;SDS011;46263;44.726;10.396;2022-12-07T16:48:43;62.72;;;23.35;;
60416;SDS011;46263;44.726;10.396;2022-12-07T16:51:10;47.63;;;23.33;;
60416;SDS011;46263;44.726;10.396;2022-12-07T16:53:37;57.08;;;23.20;;
60416;SDS011;46263;44.726;10.396;2022-12-07T16:56:05;45.35;;;23.83;;
60416;SDS011;46263;44.726;10.396;2022-12-07T16:58:35;68.90;;;25.95;;
60416;SDS011;46263;44.726;10.396;2022-12-07T17:01:08;46.25;;;23.13;;